Montreux, Switzerland
Current Conditions -  °F | °C
As of 5:50 AM on Monday 22 Dec 2014 (Local Time) from LSMS Reporting Station
Clear Clear  
Wind Chill: 28°   Ceiling: Unl
Heat Index: 28°   Visibility: 6mi
Dew Point: 25°   Wind: 1mph
Humidity: 86%   Direction: NA
Pressure: 30.5"   Gusts: NA
Location:  46.45°N, 6.88°E
Report Text: LSMS 220450Z AUTO VRB01KT 9999NDV NCD M02/M04 Q1033 RMK BLU
Loading
Personal Weather Stations






























Interactive Weather Map New forecast layout! Learn more

10-Day Weather Forecast

Advertisements
Track Severe Weather on mobile